sensor_id;sensor_type;location;lat;lon;timestamp;P1;durP1;ratioP1;P2;durP2;ratioP2
24743;SDS011;12844;52.110;5.548;2022-09-21T00:00:49;3.08;;;2.10;;
24743;SDS011;12844;52.110;5.548;2022-09-21T00:03:14;4.28;;;1.85;;
24743;SDS011;12844;52.110;5.548;2022-09-21T00:05:40;4.00;;;2.20;;
24743;SDS011;12844;52.110;5.548;2022-09-21T00:08:06;5.55;;;2.13;;
24743;SDS011;12844;52.110;5.548;2022-09-21T00:10:33;3.85;;;2.00;;
24743;SDS011;12844;52.110;5.548;2022-09-21T00:12:59;3.13;;;1.90;;
24743;SDS011;12844;52.110;5.548;2022-09-21T00:15:27;2.97;;;2.10;;
24743;SDS011;12844;52.110;5.548;2022-09-21T00:17:53;2.70;;;2.20;;
24743;SDS011;12844;52.110;5.548;2022-09-21T00:20:21;2.42;;;1.88;;
24743;SDS011;12844;52.110;5.548;2022-09-21T00:22:48;2.90;;;2.00;;
24743;SDS011;12844;52.110;5.548;2022-09-21T00:25:14;3.67;;;2.10;;
24743;SDS011;12844;52.110;5.548;2022-09-21T00:27:40;3.00;;;2.08;;
24743;SDS011;12844;52.110;5.548;2022-09-21T00:30:06;2.00;;;1.63;;
24743;SDS011;12844;52.110;5.548;2022-09-21T00:32:33;4.70;;;2.10;;
24743;SDS011;12844;52.110;5.548;2022-09-21T00:35:00;1.98;;;1.70;;
24743;SDS011;12844;52.110;5.548;2022-09-21T00:37:27;2.25;;;1.80;;
24743;SDS011;12844;52.110;5.548;2022-09-21T00:39:53;2.75;;;1.88;;
24743;SDS011;12844;52.110;5.548;2022-09-21T00:44:44;2.03;;;1.50;;
24743;SDS011;12844;52.110;5.548;2022-09-21T00:47:11;2.10;;;1.50;;
24743;SDS011;12844;52.110;5.548;2022-09-21T00:49:40;2.38;;;1.90;;
24743;SDS011;12844;52.110;5.548;2022-09-21T00:52:08;2.63;;;1.58;;
24743;SDS011;12844;52.110;5.548;2022-09-21T00:54:49;2.80;;;1.83;;
24743;SDS011;12844;52.110;5.548;2022-09-21T00:57:35;2.40;;;1.67;;
24743;SDS011;12844;52.110;5.548;2022-09-21T01:00:03;2.08;;;1.60;;
24743;SDS011;12844;52.110;5.548;2022-09-21T01:02:32;3.53;;;1.70;;
24743;SDS011;12844;52.110;5.548;2022-09-21T01:04:59;2.90;;;1.60;;
24743;SDS011;12844;52.110;5.548;2022-09-21T01:07:25;3.20;;;1.60;;
24743;SDS011;12844;52.110;5.548;2022-09-21T01:09:54;1.60;;;1.48;;
24743;SDS011;12844;52.110;5.548;2022-09-21T01:18:29;2.55;;;1.45;;
24743;SDS011;12844;52.110;5.548;2022-09-21T01:21:14;3.75;;;1.73;;
24743;SDS011;12844;52.110;5.548;2022-09-21T01:29:16;2.10;;;1.40;;
24743;SDS011;12844;52.110;5.548;2022-09-21T01:34:31;3.28;;;1.60;;
24743;SDS011;12844;52.110;5.548;2022-09-21T01:37:05;6.07;;;1.90;;
24743;SDS011;12844;52.110;5.548;2022-09-21T01:39:34;2.72;;;1.48;;
24743;SDS011;12844;52.110;5.548;2022-09-21T01:42:04;1.30;;;1.00;;
24743;SDS011;12844;52.110;5.548;2022-09-21T01:44:31;2.58;;;1.50;;
24743;SDS011;12844;52.110;5.548;2022-09-21T01:47:00;4.03;;;1.33;;
24743;SDS011;12844;52.110;5.548;2022-09-21T01:49:29;1.52;;;1.33;;
24743;SDS011;12844;52.110;5.548;2022-09-21T01:52:24;2.40;;;1.30;;
24743;SDS011;12844;52.110;5.548;2022-09-21T01:54:53;2.22;;;1.60;;
24743;SDS011;12844;52.110;5.548;2022-09-21T01:57:25;2.28;;;1.30;;
24743;SDS011;12844;52.110;5.548;2022-09-21T02:00:02;1.92;;;1.45;;
24743;SDS011;12844;52.110;5.548;2022-09-21T02:02:37;2.15;;;1.30;;
24743;SDS011;12844;52.110;5.548;2022-09-21T02:05:11;2.22;;;1.40;;
24743;SDS011;12844;52.110;5.548;2022-09-21T02:07:40;1.50;;;1.10;;
24743;SDS011;12844;52.110;5.548;2022-09-21T02:10:07;2.50;;;1.25;;
24743;SDS011;12844;52.110;5.548;2022-09-21T02:12:37;1.42;;;1.17;;
24743;SDS011;12844;52.110;5.548;2022-09-21T02:15:04;2.25;;;1.50;;
24743;SDS011;12844;52.110;5.548;2022-09-21T02:20:31;1.85;;;1.38;;
24743;SDS011;12844;52.110;5.548;2022-09-21T02:23:06;1.77;;;1.20;;
24743;SDS011;12844;52.110;5.548;2022-09-21T02:25:51;1.60;;;1.20;;
24743;SDS011;12844;52.110;5.548;2022-09-21T02:28:37;1.42;;;1.33;;
24743;SDS011;12844;52.110;5.548;2022-09-21T02:33:57;1.50;;;1.20;;
24743;SDS011;12844;52.110;5.548;2022-09-21T02:36:42;1.60;;;1.25;;
24743;SDS011;12844;52.110;5.548;2022-09-21T02:41:57;1.23;;;1.02;;
24743;SDS011;12844;52.110;5.548;2022-09-21T02:44:39;1.45;;;1.13;;
24743;SDS011;12844;52.110;5.548;2022-09-21T02:47:14;2.08;;;1.17;;
24743;SDS011;12844;52.110;5.548;2022-09-21T02:49:48;2.13;;;1.30;;
24743;SDS011;12844;52.110;5.548;2022-09-21T02:52:18;1.60;;;1.40;;
24743;SDS011;12844;52.110;5.548;2022-09-21T02:54:46;1.40;;;1.30;;
24743;SDS011;12844;52.110;5.548;2022-09-21T02:57:15;1.58;;;1.33;;
24743;SDS011;12844;52.110;5.548;2022-09-21T02:59:44;2.47;;;1.30;;
24743;SDS011;12844;52.110;5.548;2022-09-21T03:02:10;1.40;;;1.20;;
24743;SDS011;12844;52.110;5.548;2022-09-21T03:04:37;1.65;;;1.20;;
24743;SDS011;12844;52.110;5.548;2022-09-21T03:07:05;1.67;;;1.40;;
24743;SDS011;12844;52.110;5.548;2022-09-21T03:09:33;1.30;;;1.20;;
24743;SDS011;12844;52.110;5.548;2022-09-21T03:11:59;1.40;;;1.23;;
24743;SDS011;12844;52.110;5.548;2022-09-21T03:14:25;1.38;;;1.23;;
24743;SDS011;12844;52.110;5.548;2022-09-21T03:16:50;1.52;;;1.20;;
24743;SDS011;12844;52.110;5.548;2022-09-21T03:19:16;1.45;;;1.30;;
24743;SDS011;12844;52.110;5.548;2022-09-21T03:21:41;1.45;;;1.25;;
24743;SDS011;12844;52.110;5.548;2022-09-21T03:24:07;2.17;;;1.27;;
24743;SDS011;12844;52.110;5.548;2022-09-21T03:26:33;1.20;;;1.08;;
24743;SDS011;12844;52.110;5.548;2022-09-21T03:28:59;1.27;;;1.17;;
24743;SDS011;12844;52.110;5.548;2022-09-21T03:31:25;1.30;;;1.20;;
24743;SDS011;12844;52.110;5.548;2022-09-21T03:33:50;1.65;;;1.20;;
24743;SDS011;12844;52.110;5.548;2022-09-21T03:36:16;1.30;;;1.13;;
24743;SDS011;12844;52.110;5.548;2022-09-21T03:38:42;1.42;;;1.30;;
24743;SDS011;12844;52.110;5.548;2022-09-21T03:41:08;1.40;;;1.17;;
24743;SDS011;12844;52.110;5.548;2022-09-21T03:43:33;2.22;;;1.10;;
24743;SDS011;12844;52.110;5.548;2022-09-21T03:45:59;2.53;;;1.20;;
24743;SDS011;12844;52.110;5.548;2022-09-21T03:48:24;1.88;;;1.40;;
24743;SDS011;12844;52.110;5.548;2022-09-21T03:50:50;1.17;;;1.08;;
24743;SDS011;12844;52.110;5.548;2022-09-21T03:53:16;1.60;;;1.17;;
24743;SDS011;12844;52.110;5.548;2022-09-21T03:55:41;1.20;;;1.00;;
24743;SDS011;12844;52.110;5.548;2022-09-21T03:58:07;1.55;;;1.30;;
24743;SDS011;12844;52.110;5.548;2022-09-21T04:00:33;1.25;;;1.10;;
24743;SDS011;12844;52.110;5.548;2022-09-21T04:03:00;1.60;;;1.15;;
24743;SDS011;12844;52.110;5.548;2022-09-21T04:05:26;1.40;;;1.20;;
24743;SDS011;12844;52.110;5.548;2022-09-21T04:07:51;1.55;;;1.30;;
24743;SDS011;12844;52.110;5.548;2022-09-21T04:10:19;1.45;;;1.10;;
24743;SDS011;12844;52.110;5.548;2022-09-21T04:12:50;1.58;;;1.05;;
24743;SDS011;12844;52.110;5.548;2022-09-21T04:15:17;1.98;;;1.35;;
24743;SDS011;12844;52.110;5.548;2022-09-21T04:17:45;1.92;;;1.20;;
24743;SDS011;12844;52.110;5.548;2022-09-21T04:20:14;1.50;;;1.10;;
24743;SDS011;12844;52.110;5.548;2022-09-21T04:22:39;1.52;;;1.25;;
24743;SDS011;12844;52.110;5.548;2022-09-21T04:25:05;1.40;;;1.10;;
24743;SDS011;12844;52.110;5.548;2022-09-21T04:27:31;1.52;;;1.17;;
24743;SDS011;12844;52.110;5.548;2022-09-21T04:29:58;1.20;;;0.95;;
24743;SDS011;12844;52.110;5.548;2022-09-21T04:32:24;1.98;;;1.45;;
24743;SDS011;12844;52.110;5.548;2022-09-21T04:34:50;1.20;;;1.10;;
24743;SDS011;12844;52.110;5.548;2022-09-21T04:37:16;1.20;;;0.90;;
24743;SDS011;12844;52.110;5.548;2022-09-21T04:39:41;2.55;;;1.35;;
24743;SDS011;12844;52.110;5.548;2022-09-21T04:42:07;2.08;;;1.17;;
24743;SDS011;12844;52.110;5.548;2022-09-21T04:44:34;1.48;;;0.93;;
24743;SDS011;12844;52.110;5.548;2022-09-21T04:46:59;1.10;;;1.00;;
24743;SDS011;12844;52.110;5.548;2022-09-21T04:49:25;1.98;;;1.17;;
24743;SDS011;12844;52.110;5.548;2022-09-21T04:51:50;2.17;;;1.08;;
24743;SDS011;12844;52.110;5.548;2022-09-21T04:54:16;2.05;;;1.10;;
24743;SDS011;12844;52.110;5.548;2022-09-21T04:56:41;1.83;;;1.02;;
24743;SDS011;12844;52.110;5.548;2022-09-21T04:59:07;1.20;;;1.10;;
24743;SDS011;12844;52.110;5.548;2022-09-21T05:01:32;1.42;;;1.27;;
24743;SDS011;12844;52.110;5.548;2022-09-21T05:03:58;1.35;;;1.20;;
24743;SDS011;12844;52.110;5.548;2022-09-21T05:06:27;1.20;;;1.00;;
24743;SDS011;12844;52.110;5.548;2022-09-21T05:08:53;0.90;;;0.90;;
24743;SDS011;12844;52.110;5.548;2022-09-21T05:11:38;1.20;;;1.10;;
24743;SDS011;12844;52.110;5.548;2022-09-21T05:14:03;1.52;;;1.30;;
24743;SDS011;12844;52.110;5.548;2022-09-21T05:16:29;0.98;;;0.90;;
24743;SDS011;12844;52.110;5.548;2022-09-21T05:18:55;1.10;;;1.00;;
24743;SDS011;12844;52.110;5.548;2022-09-21T05:21:20;1.10;;;1.00;;
24743;SDS011;12844;52.110;5.548;2022-09-21T05:23:46;1.48;;;1.23;;
24743;SDS011;12844;52.110;5.548;2022-09-21T05:26:11;1.10;;;1.00;;
24743;SDS011;12844;52.110;5.548;2022-09-21T05:28:37;1.30;;;1.20;;
24743;SDS011;12844;52.110;5.548;2022-09-21T05:33:36;1.23;;;1.13;;
24743;SDS011;12844;52.110;5.548;2022-09-21T05:38:49;0.90;;;0.90;;
24743;SDS011;12844;52.110;5.548;2022-09-21T05:41:14;1.00;;;0.90;;
24743;SDS011;12844;52.110;5.548;2022-09-21T05:43:40;0.85;;;0.80;;
24743;SDS011;12844;52.110;5.548;2022-09-21T05:46:18;1.30;;;1.00;;
24743;SDS011;12844;52.110;5.548;2022-09-21T05:49:37;1.15;;;0.90;;
24743;SDS011;12844;52.110;5.548;2022-09-21T05:57:36;1.55;;;0.90;;
24743;SDS011;12844;52.110;5.548;2022-09-21T06:00:18;1.08;;;0.98;;
24743;SDS011;12844;52.110;5.548;2022-09-21T06:05:17;1.50;;;0.90;;
24743;SDS011;12844;52.110;5.548;2022-09-21T06:07:43;1.23;;;0.90;;
24743;SDS011;12844;52.110;5.548;2022-09-21T06:10:09;0.80;;;0.80;;
24743;SDS011;12844;52.110;5.548;2022-09-21T06:12:36;1.10;;;0.90;;
24743;SDS011;12844;52.110;5.548;2022-09-21T06:15:03;1.42;;;0.82;;
24743;SDS011;12844;52.110;5.548;2022-09-21T06:17:29;1.00;;;0.90;;
24743;SDS011;12844;52.110;5.548;2022-09-21T06:19:56;1.13;;;0.90;;
24743;SDS011;12844;52.110;5.548;2022-09-21T06:22:21;10.02;;;1.45;;
24743;SDS011;12844;52.110;5.548;2022-09-21T06:24:47;2.10;;;1.17;;
24743;SDS011;12844;52.110;5.548;2022-09-21T06:27:12;4.55;;;1.20;;
24743;SDS011;12844;52.110;5.548;2022-09-21T06:29:38;2.00;;;1.20;;
24743;SDS011;12844;52.110;5.548;2022-09-21T06:32:04;3.45;;;1.25;;
24743;SDS011;12844;52.110;5.548;2022-09-21T06:34:29;1.83;;;0.98;;
24743;SDS011;12844;52.110;5.548;2022-09-21T06:36:55;3.28;;;1.15;;
24743;SDS011;12844;52.110;5.548;2022-09-21T06:39:21;1.00;;;0.80;;
24743;SDS011;12844;52.110;5.548;2022-09-21T06:41:47;1.02;;;0.90;;
24743;SDS011;12844;52.110;5.548;2022-09-21T06:44:12;2.92;;;1.05;;
24743;SDS011;12844;52.110;5.548;2022-09-21T06:46:38;1.40;;;1.05;;
24743;SDS011;12844;52.110;5.548;2022-09-21T06:49:03;1.90;;;1.20;;
24743;SDS011;12844;52.110;5.548;2022-09-21T06:51:29;2.50;;;0.90;;
24743;SDS011;12844;52.110;5.548;2022-09-21T06:53:55;1.92;;;1.20;;
24743;SDS011;12844;52.110;5.548;2022-09-21T06:56:22;2.67;;;1.00;;
24743;SDS011;12844;52.110;5.548;2022-09-21T06:58:48;3.78;;;1.10;;
24743;SDS011;12844;52.110;5.548;2022-09-21T07:01:14;2.22;;;1.20;;
24743;SDS011;12844;52.110;5.548;2022-09-21T07:03:41;2.05;;;1.08;;
24743;SDS011;12844;52.110;5.548;2022-09-21T07:06:08;3.50;;;1.10;;
24743;SDS011;12844;52.110;5.548;2022-09-21T07:08:39;2.65;;;1.00;;
24743;SDS011;12844;52.110;5.548;2022-09-21T07:11:06;1.67;;;0.82;;
24743;SDS011;12844;52.110;5.548;2022-09-21T07:13:32;2.47;;;1.10;;
24743;SDS011;12844;52.110;5.548;2022-09-21T07:16:01;3.65;;;1.65;;
24743;SDS011;12844;52.110;5.548;2022-09-21T07:18:28;3.08;;;1.20;;
24743;SDS011;12844;52.110;5.548;2022-09-21T07:20:53;2.15;;;1.08;;
24743;SDS011;12844;52.110;5.548;2022-09-21T07:23:19;2.88;;;1.38;;
24743;SDS011;12844;52.110;5.548;2022-09-21T07:25:47;5.20;;;1.27;;
24743;SDS011;12844;52.110;5.548;2022-09-21T07:28:14;1.48;;;1.00;;
24743;SDS011;12844;52.110;5.548;2022-09-21T07:30:41;2.88;;;2.03;;
24743;SDS011;12844;52.110;5.548;2022-09-21T07:33:07;2.25;;;1.10;;
24743;SDS011;12844;52.110;5.548;2022-09-21T07:35:32;1.70;;;1.17;;
24743;SDS011;12844;52.110;5.548;2022-09-21T07:37:59;1.88;;;1.10;;
24743;SDS011;12844;52.110;5.548;2022-09-21T07:40:26;2.13;;;1.20;;
24743;SDS011;12844;52.110;5.548;2022-09-21T07:42:52;3.38;;;1.20;;
24743;SDS011;12844;52.110;5.548;2022-09-21T07:45:21;2.83;;;0.93;;
24743;SDS011;12844;52.110;5.548;2022-09-21T07:47:46;2.40;;;0.90;;
24743;SDS011;12844;52.110;5.548;2022-09-21T07:50:12;4.00;;;1.17;;
24743;SDS011;12844;52.110;5.548;2022-09-21T07:52:38;3.00;;;1.20;;
24743;SDS011;12844;52.110;5.548;2022-09-21T07:55:04;2.25;;;0.93;;
24743;SDS011;12844;52.110;5.548;2022-09-21T07:57:29;2.97;;;1.23;;
24743;SDS011;12844;52.110;5.548;2022-09-21T08:00:14;4.47;;;1.20;;
24743;SDS011;12844;52.110;5.548;2022-09-21T08:02:39;4.43;;;1.10;;
24743;SDS011;12844;52.110;5.548;2022-09-21T08:05:05;1.50;;;1.10;;
24743;SDS011;12844;52.110;5.548;2022-09-21T08:07:30;2.45;;;1.13;;
24743;SDS011;12844;52.110;5.548;2022-09-21T08:09:56;6.82;;;1.58;;
24743;SDS011;12844;52.110;5.548;2022-09-21T08:12:22;2.63;;;1.00;;
24743;SDS011;12844;52.110;5.548;2022-09-21T08:14:47;3.20;;;1.10;;
24743;SDS011;12844;52.110;5.548;2022-09-21T08:17:14;2.38;;;1.08;;
24743;SDS011;12844;52.110;5.548;2022-09-21T08:19:39;2.60;;;1.23;;
24743;SDS011;12844;52.110;5.548;2022-09-21T08:22:05;2.15;;;1.10;;
24743;SDS011;12844;52.110;5.548;2022-09-21T08:24:31;2.75;;;1.10;;
24743;SDS011;12844;52.110;5.548;2022-09-21T08:26:57;2.22;;;1.02;;
24743;SDS011;12844;52.110;5.548;2022-09-21T08:29:23;2.60;;;1.20;;
24743;SDS011;12844;52.110;5.548;2022-09-21T08:31:49;2.28;;;1.00;;
24743;SDS011;12844;52.110;5.548;2022-09-21T08:34:16;2.20;;;1.00;;
24743;SDS011;12844;52.110;5.548;2022-09-21T08:36:43;5.30;;;1.38;;
24743;SDS011;12844;52.110;5.548;2022-09-21T08:39:09;5.03;;;1.45;;
24743;SDS011;12844;52.110;5.548;2022-09-21T08:44:23;2.10;;;0.90;;
24743;SDS011;12844;52.110;5.548;2022-09-21T08:47:03;1.80;;;1.13;;
24743;SDS011;12844;52.110;5.548;2022-09-21T08:49:39;3.85;;;1.08;;
24743;SDS011;12844;52.110;5.548;2022-09-21T08:52:12;3.42;;;0.90;;
24743;SDS011;12844;52.110;5.548;2022-09-21T08:57:21;1.88;;;0.73;;
24743;SDS011;12844;52.110;5.548;2022-09-21T08:59:50;2.55;;;1.05;;
24743;SDS011;12844;52.110;5.548;2022-09-21T09:13:11;2.13;;;0.90;;
24743;SDS011;12844;52.110;5.548;2022-09-21T09:15:57;1.85;;;0.90;;
24743;SDS011;12844;52.110;5.548;2022-09-21T09:18:43;1.35;;;0.93;;
24743;SDS011;12844;52.110;5.548;2022-09-21T09:23:42;1.92;;;0.90;;
24743;SDS011;12844;52.110;5.548;2022-09-21T09:26:35;1.15;;;0.80;;
24743;SDS011;12844;52.110;5.548;2022-09-21T09:29:15;0.88;;;0.70;;
24743;SDS011;12844;52.110;5.548;2022-09-21T09:31:50;2.58;;;0.90;;
24743;SDS011;12844;52.110;5.548;2022-09-21T09:34:22;1.13;;;0.90;;
24743;SDS011;12844;52.110;5.548;2022-09-21T09:36:55;2.85;;;0.90;;
24743;SDS011;12844;52.110;5.548;2022-09-21T09:39:23;2.60;;;0.90;;
24743;SDS011;12844;52.110;5.548;2022-09-21T09:42:12;3.10;;;1.10;;
24743;SDS011;12844;52.110;5.548;2022-09-21T09:50:35;3.05;;;1.08;;
24743;SDS011;12844;52.110;5.548;2022-09-21T09:53:09;5.40;;;1.15;;
24743;SDS011;12844;52.110;5.548;2022-09-21T09:55:47;5.00;;;1.27;;
24743;SDS011;12844;52.110;5.548;2022-09-21T09:58:16;9.27;;;1.20;;
24743;SDS011;12844;52.110;5.548;2022-09-21T10:01:02;8.73;;;1.77;;
24743;SDS011;12844;52.110;5.548;2022-09-21T10:03:28;7.82;;;1.17;;
24743;SDS011;12844;52.110;5.548;2022-09-21T10:05:54;5.47;;;1.70;;
24743;SDS011;12844;52.110;5.548;2022-09-21T10:11:17;5.15;;;1.10;;
24743;SDS011;12844;52.110;5.548;2022-09-21T10:13:44;5.80;;;1.08;;
24743;SDS011;12844;52.110;5.548;2022-09-21T10:18:39;4.35;;;0.93;;
24743;SDS011;12844;52.110;5.548;2022-09-21T10:21:17;5.10;;;1.30;;
24743;SDS011;12844;52.110;5.548;2022-09-21T10:23:51;7.20;;;1.42;;
24743;SDS011;12844;52.110;5.548;2022-09-21T10:26:21;3.40;;;1.08;;
24743;SDS011;12844;52.110;5.548;2022-09-21T10:31:57;6.40;;;1.40;;
24743;SDS011;12844;52.110;5.548;2022-09-21T10:34:28;8.25;;;1.45;;
24743;SDS011;12844;52.110;5.548;2022-09-21T10:36:57;9.48;;;1.05;;
24743;SDS011;12844;52.110;5.548;2022-09-21T10:42:05;5.63;;;1.20;;
24743;SDS011;12844;52.110;5.548;2022-09-21T10:44:38;4.43;;;1.02;;
24743;SDS011;12844;52.110;5.548;2022-09-21T10:49:44;4.25;;;1.42;;
24743;SDS011;12844;52.110;5.548;2022-09-21T10:52:14;6.57;;;1.30;;
24743;SDS011;12844;52.110;5.548;2022-09-21T10:54:40;7.13;;;1.17;;
24743;SDS011;12844;52.110;5.548;2022-09-21T10:57:07;5.70;;;1.02;;
24743;SDS011;12844;52.110;5.548;2022-09-21T10:59:38;4.90;;;1.08;;
24743;SDS011;12844;52.110;5.548;2022-09-21T11:02:22;3.85;;;0.95;;
24743;SDS011;12844;52.110;5.548;2022-09-21T11:05:18;3.17;;;1.00;;
24743;SDS011;12844;52.110;5.548;2022-09-21T11:08:06;2.97;;;0.90;;
24743;SDS011;12844;52.110;5.548;2022-09-21T11:13:30;4.82;;;0.82;;
24743;SDS011;12844;52.110;5.548;2022-09-21T11:24:25;4.45;;;1.10;;
24743;SDS011;12844;52.110;5.548;2022-09-21T11:27:14;2.05;;;0.80;;
24743;SDS011;12844;52.110;5.548;2022-09-21T11:30:00;6.35;;;1.20;;
24743;SDS011;12844;52.110;5.548;2022-09-21T11:35:25;4.20;;;1.02;;
24743;SDS011;12844;52.110;5.548;2022-09-21T11:49:06;1.85;;;0.80;;
24743;SDS011;12844;52.110;5.548;2022-09-21T11:52:06;2.53;;;0.80;;
24743;SDS011;12844;52.110;5.548;2022-09-21T17:04:30;0.65;;;0.30;;
24743;SDS011;12844;52.110;5.548;2022-09-21T17:06:57;0.60;;;0.50;;
24743;SDS011;12844;52.110;5.548;2022-09-21T17:09:24;1.00;;;0.50;;
24743;SDS011;12844;52.110;5.548;2022-09-21T17:12:02;1.48;;;0.57;;
24743;SDS011;12844;52.110;5.548;2022-09-21T17:14:31;0.85;;;0.28;;
24743;SDS011;12844;52.110;5.548;2022-09-21T17:16:59;1.05;;;0.50;;
24743;SDS011;12844;52.110;5.548;2022-09-21T17:19:32;1.60;;;0.50;;
24743;SDS011;12844;52.110;5.548;2022-09-21T17:21:58;1.02;;;0.60;;
24743;SDS011;12844;52.110;5.548;2022-09-21T17:24:24;0.55;;;0.40;;
24743;SDS011;12844;52.110;5.548;2022-09-21T17:26:52;0.95;;;0.40;;
24743;SDS011;12844;52.110;5.548;2022-09-21T17:29:22;0.88;;;0.32;;
24743;SDS011;12844;52.110;5.548;2022-09-21T17:34:18;1.95;;;0.40;;
24743;SDS011;12844;52.110;5.548;2022-09-21T17:36:46;0.63;;;0.40;;
24743;SDS011;12844;52.110;5.548;2022-09-21T17:39:12;1.83;;;0.50;;
24743;SDS011;12844;52.110;5.548;2022-09-21T17:41:41;0.73;;;0.40;;
24743;SDS011;12844;52.110;5.548;2022-09-21T17:47:27;1.15;;;0.40;;
24743;SDS011;12844;52.110;5.548;2022-09-21T17:49:58;1.08;;;0.43;;
24743;SDS011;12844;52.110;5.548;2022-09-21T17:52:47;1.35;;;0.50;;
24743;SDS011;12844;52.110;5.548;2022-09-21T17:55:31;1.48;;;0.43;;
24743;SDS011;12844;52.110;5.548;2022-09-21T17:58:06;0.52;;;0.28;;
24743;SDS011;12844;52.110;5.548;2022-09-21T18:03:32;0.75;;;0.40;;
24743;SDS011;12844;52.110;5.548;2022-09-21T18:06:02;1.13;;;0.52;;
24743;SDS011;12844;52.110;5.548;2022-09-21T18:08:28;1.13;;;0.40;;
24743;SDS011;12844;52.110;5.548;2022-09-21T18:14:21;0.80;;;0.50;;
24743;SDS011;12844;52.110;5.548;2022-09-21T18:22:29;0.93;;;0.50;;
24743;SDS011;12844;52.110;5.548;2022-09-21T18:25:28;1.05;;;0.50;;
24743;SDS011;12844;52.110;5.548;2022-09-21T18:36:53;2.03;;;0.50;;
24743;SDS011;12844;52.110;5.548;2022-09-21T18:42:04;1.13;;;0.60;;
24743;SDS011;12844;52.110;5.548;2022-09-21T18:44:45;0.68;;;0.50;;
24743;SDS011;12844;52.110;5.548;2022-09-21T18:47:40;0.65;;;0.35;;
24743;SDS011;12844;52.110;5.548;2022-09-21T18:50:25;1.73;;;0.50;;
24743;SDS011;12844;52.110;5.548;2022-09-21T18:55:42;1.60;;;0.77;;
24743;SDS011;12844;52.110;5.548;2022-09-21T18:58:09;1.27;;;0.65;;
24743;SDS011;12844;52.110;5.548;2022-09-21T19:00:35;1.65;;;0.70;;
24743;SDS011;12844;52.110;5.548;2022-09-21T19:03:02;1.35;;;0.63;;
24743;SDS011;12844;52.110;5.548;2022-09-21T19:05:30;1.23;;;0.60;;
24743;SDS011;12844;52.110;5.548;2022-09-21T19:08:18;0.80;;;0.63;;
24743;SDS011;12844;52.110;5.548;2022-09-21T19:11:08;1.65;;;0.70;;
24743;SDS011;12844;52.110;5.548;2022-09-21T19:17:01;1.48;;;0.65;;
24743;SDS011;12844;52.110;5.548;2022-09-21T19:25:03;1.23;;;0.70;;
24743;SDS011;12844;52.110;5.548;2022-09-21T19:30:07;0.70;;;0.70;;
24743;SDS011;12844;52.110;5.548;2022-09-21T19:32:47;1.75;;;0.70;;
24743;SDS011;12844;52.110;5.548;2022-09-21T19:35:25;1.13;;;0.65;;
24743;SDS011;12844;52.110;5.548;2022-09-21T19:37:54;1.48;;;0.60;;
24743;SDS011;12844;52.110;5.548;2022-09-21T19:40:22;1.30;;;0.70;;
24743;SDS011;12844;52.110;5.548;2022-09-21T19:51:13;1.30;;;0.90;;
24743;SDS011;12844;52.110;5.548;2022-09-21T19:53:43;1.13;;;0.63;;
24743;SDS011;12844;52.110;5.548;2022-09-21T19:56:28;1.00;;;0.70;;
24743;SDS011;12844;52.110;5.548;2022-09-21T19:59:14;1.08;;;0.80;;
24743;SDS011;12844;52.110;5.548;2022-09-21T20:02:34;1.92;;;0.88;;
24743;SDS011;12844;52.110;5.548;2022-09-21T20:05:05;0.93;;;0.70;;
24743;SDS011;12844;52.110;5.548;2022-09-21T20:07:50;1.20;;;0.60;;
24743;SDS011;12844;52.110;5.548;2022-09-21T20:15:21;1.55;;;0.70;;
24743;SDS011;12844;52.110;5.548;2022-09-21T20:17:59;2.13;;;0.90;;
24743;SDS011;12844;52.110;5.548;2022-09-21T20:20:32;1.48;;;0.73;;
24743;SDS011;12844;52.110;5.548;2022-09-21T20:22:58;1.05;;;0.70;;
24743;SDS011;12844;52.110;5.548;2022-09-21T20:25:45;1.40;;;0.90;;
24743;SDS011;12844;52.110;5.548;2022-09-21T20:28:29;2.72;;;1.08;;
24743;SDS011;12844;52.110;5.548;2022-09-21T20:30:55;1.65;;;0.60;;
24743;SDS011;12844;52.110;5.548;2022-09-21T20:33:21;1.17;;;0.80;;
24743;SDS011;12844;52.110;5.548;2022-09-21T20:35:48;1.23;;;0.80;;
24743;SDS011;12844;52.110;5.548;2022-09-21T20:38:14;1.38;;;0.80;;
24743;SDS011;12844;52.110;5.548;2022-09-21T20:40:41;1.38;;;0.70;;
24743;SDS011;12844;52.110;5.548;2022-09-21T20:43:07;2.42;;;1.25;;
24743;SDS011;12844;52.110;5.548;2022-09-21T20:45:33;0.90;;;0.70;;
24743;SDS011;12844;52.110;5.548;2022-09-21T20:47:59;2.47;;;0.80;;
24743;SDS011;12844;52.110;5.548;2022-09-21T20:50:38;2.05;;;0.70;;
24743;SDS011;12844;52.110;5.548;2022-09-21T20:53:08;1.83;;;0.80;;
24743;SDS011;12844;52.110;5.548;2022-09-21T20:55:34;1.60;;;0.93;;
24743;SDS011;12844;52.110;5.548;2022-09-21T20:58:00;0.98;;;0.85;;
24743;SDS011;12844;52.110;5.548;2022-09-21T21:00:27;2.08;;;0.90;;
24743;SDS011;12844;52.110;5.548;2022-09-21T21:02:52;1.30;;;0.80;;
24743;SDS011;12844;52.110;5.548;2022-09-21T21:05:19;1.60;;;1.00;;
24743;SDS011;12844;52.110;5.548;2022-09-21T21:07:46;1.52;;;1.00;;
24743;SDS011;12844;52.110;5.548;2022-09-21T21:10:11;1.55;;;0.77;;
24743;SDS011;12844;52.110;5.548;2022-09-21T21:12:38;1.00;;;0.88;;
24743;SDS011;12844;52.110;5.548;2022-09-21T21:15:05;1.73;;;1.02;;
24743;SDS011;12844;52.110;5.548;2022-09-21T21:17:32;1.70;;;0.95;;
24743;SDS011;12844;52.110;5.548;2022-09-21T21:19:59;1.35;;;0.98;;
24743;SDS011;12844;52.110;5.548;2022-09-21T21:22:25;2.28;;;1.00;;
24743;SDS011;12844;52.110;5.548;2022-09-21T21:24:51;2.28;;;1.00;;
24743;SDS011;12844;52.110;5.548;2022-09-21T21:27:17;2.25;;;0.90;;
24743;SDS011;12844;52.110;5.548;2022-09-21T21:29:45;1.80;;;1.02;;
24743;SDS011;12844;52.110;5.548;2022-09-21T21:32:14;1.85;;;1.00;;
24743;SDS011;12844;52.110;5.548;2022-09-21T21:34:41;1.85;;;0.90;;
24743;SDS011;12844;52.110;5.548;2022-09-21T21:37:07;1.33;;;0.82;;
24743;SDS011;12844;52.110;5.548;2022-09-21T21:39:34;1.63;;;0.90;;
24743;SDS011;12844;52.110;5.548;2022-09-21T21:41:59;1.77;;;0.95;;
24743;SDS011;12844;52.110;5.548;2022-09-21T21:44:25;1.13;;;0.90;;
24743;SDS011;12844;52.110;5.548;2022-09-21T21:46:51;1.00;;;0.90;;
24743;SDS011;12844;52.110;5.548;2022-09-21T21:49:18;1.58;;;1.00;;
24743;SDS011;12844;52.110;5.548;2022-09-21T21:51:44;1.73;;;1.02;;
24743;SDS011;12844;52.110;5.548;2022-09-21T21:54:10;1.63;;;1.08;;
24743;SDS011;12844;52.110;5.548;2022-09-21T21:56:36;2.47;;;0.95;;
24743;SDS011;12844;52.110;5.548;2022-09-21T21:59:01;2.28;;;1.23;;
24743;SDS011;12844;52.110;5.548;2022-09-21T22:01:28;1.80;;;1.10;;
24743;SDS011;12844;52.110;5.548;2022-09-21T22:03:54;2.15;;;1.10;;
24743;SDS011;12844;52.110;5.548;2022-09-21T22:06:21;2.05;;;1.10;;
24743;SDS011;12844;52.110;5.548;2022-09-21T22:08:48;1.55;;;0.95;;
24743;SDS011;12844;52.110;5.548;2022-09-21T22:11:14;2.20;;;0.98;;
24743;SDS011;12844;52.110;5.548;2022-09-21T22:13:41;1.75;;;1.10;;
24743;SDS011;12844;52.110;5.548;2022-09-21T22:16:09;2.10;;;1.20;;
24743;SDS011;12844;52.110;5.548;2022-09-21T22:18:39;1.92;;;1.27;;
24743;SDS011;12844;52.110;5.548;2022-09-21T22:21:38;2.03;;;1.20;;
24743;SDS011;12844;52.110;5.548;2022-09-21T22:23:59;1.60;;;1.13;;
24743;SDS011;12844;52.110;5.548;2022-09-21T22:26:29;1.80;;;1.10;;
24743;SDS011;12844;52.110;5.548;2022-09-21T22:28:57;1.67;;;1.20;;
24743;SDS011;12844;52.110;5.548;2022-09-21T22:31:26;2.22;;;1.13;;
24743;SDS011;12844;52.110;5.548;2022-09-21T22:33:55;2.92;;;1.15;;
24743;SDS011;12844;52.110;5.548;2022-09-21T22:36:22;2.50;;;1.33;;
24743;SDS011;12844;52.110;5.548;2022-09-21T22:38:49;1.80;;;1.20;;
24743;SDS011;12844;52.110;5.548;2022-09-21T22:41:18;2.17;;;1.17;;
24743;SDS011;12844;52.110;5.548;2022-09-21T22:43:49;1.07;;;0.97;;
24743;SDS011;12844;52.110;5.548;2022-09-21T22:46:16;1.55;;;1.00;;
24743;SDS011;12844;52.110;5.548;2022-09-21T22:48:42;1.77;;;1.20;;
24743;SDS011;12844;52.110;5.548;2022-09-21T22:51:08;1.30;;;1.17;;
24743;SDS011;12844;52.110;5.548;2022-09-21T22:53:34;2.03;;;1.27;;